Terminal Aerodrome Forecast
Issued by NWS

Home | Current Version | Previous Version | Graphics & Text | Print | Product List | Glossary On
Versions: 1 2 3 4 5 6 7 8 9 10 11 12 13 14 15 16 17 18 19 20 21 22
000
FTUS43 KLSX 140800 AAA
TAFSUS
TAF AMD
KSUS 140844Z 1409/1506 00000KT 2SM BR SCT005
      TEMPO 1409/1412 1/2SM FG VV002
     FM141300 VRB03KT 4SM BR SCT010
     FM141400 VRB05KT P6SM SCT080
     FM141800 13007KT P6SM SCT050
     FM150500 14005KT P6SM BKN150=

USA.gov is the U.S. government's official web portal to all federal, state and local government web resources and services.